createdAt,value
2018-06-13T00:00:04.951Z,75.80
2018-06-13T00:02:33.793Z,76.10
2018-06-13T00:05:02.653Z,76.00
2018-06-13T00:07:31.531Z,75.30
2018-06-13T00:10:01.065Z,75.70
2018-06-13T00:12:29.901Z,76.10
2018-06-13T00:14:58.746Z,76.10
2018-06-13T00:17:27.577Z,76.40
2018-06-13T00:19:56.410Z,76.50
2018-06-13T00:22:25.242Z,75.40
2018-06-13T00:24:54.080Z,75.80
2018-06-13T00:27:22.931Z,75.90
2018-06-13T00:29:52.506Z,75.50
2018-06-13T00:32:21.351Z,75.90
2018-06-13T00:34:51.524Z,75.90
2018-06-13T00:37:19.023Z,75.70
2018-06-13T00:39:47.864Z,76.30
2018-06-13T00:42:16.719Z,76.30
2018-06-13T00:44:45.551Z,76.00
2018-06-13T00:47:14.412Z,76.00
2018-06-13T00:49:43.250Z,76.30
2018-06-13T00:52:12.310Z,76.00
2018-06-13T00:54:40.918Z,76.20
2018-06-13T00:57:09.767Z,76.70
2018-06-13T00:59:38.602Z,76.90
2018-06-13T01:02:08.188Z,76.90
2018-06-13T01:04:37.052Z,76.60
2018-06-13T01:07:05.889Z,77.50
2018-06-13T01:09:34.808Z,77.00
2018-06-13T01:12:03.639Z,77.20
2018-06-13T01:14:32.491Z,77.70
2018-06-13T01:17:01.324Z,77.50
2018-06-13T01:19:30.173Z,77.20
2018-06-13T01:21:59.031Z,77.20
2018-06-13T01:24:28.595Z,77.50
2018-06-13T01:26:57.469Z,77.30
2018-06-13T01:29:26.290Z,77.60
2018-06-13T01:31:55.129Z,77.90
2018-06-13T01:34:23.970Z,77.70
2018-06-13T01:36:52.797Z,77.90
2018-06-13T01:39:21.654Z,78.20
2018-06-13T01:41:51.244Z,78.70
2018-06-13T01:44:20.078Z,78.40
2018-06-13T01:46:48.917Z,78.10
2018-06-13T01:49:17.772Z,78.40
2018-06-13T01:51:46.599Z,78.50
2018-06-13T01:54:15.447Z,78.40
2018-06-13T01:56:44.287Z,78.60
2018-06-13T01:59:13.132Z,78.30
2018-06-13T02:01:41.957Z,78.60
2018-06-13T02:04:10.792Z,78.70
2018-06-13T02:06:39.631Z,78.90
2018-06-13T02:09:08.469Z,78.30
2018-06-13T02:11:37.312Z,78.90
2018-06-13T02:14:06.147Z,79.10
2018-06-13T02:16:34.995Z,79.10
2018-06-13T02:19:03.837Z,79.40
2018-06-13T02:21:32.680Z,79.30
2018-06-13T02:24:01.532Z,79.80
2018-06-13T02:26:30.375Z,79.10
2018-06-13T02:28:59.965Z,79.40
2018-06-13T02:31:30.162Z,79.80
2018-06-13T02:33:59.003Z,79.60
2018-06-13T02:36:27.844Z,79.70
2018-06-13T02:38:57.197Z,79.60
2018-06-13T02:41:26.038Z,79.80
2018-06-13T02:43:54.882Z,79.70
2018-06-13T02:46:23.734Z,79.80
2018-06-13T02:48:52.574Z,79.80
2018-06-13T02:51:21.419Z,79.90
2018-06-13T02:53:50.266Z,80.10
2018-06-13T02:56:19.110Z,79.40
2018-06-13T02:58:47.955Z,79.40
2018-06-13T03:01:16.811Z,79.10
2018-06-13T03:03:45.649Z,79.40
2018-06-13T03:06:14.502Z,79.20
2018-06-13T03:08:44.674Z,78.90
2018-06-13T03:11:12.200Z,78.80
2018-06-13T03:13:41.038Z,79.10
2018-06-13T03:16:09.887Z,79.40
2018-06-13T03:18:38.719Z,79.10
2018-06-13T03:21:07.542Z,79.60
2018-06-13T03:23:36.377Z,79.40
2018-06-13T03:26:05.950Z,79.30
2018-06-13T03:28:34.783Z,79.00
2018-06-13T03:31:04.371Z,78.90
2018-06-13T03:33:33.215Z,79.10
2018-06-13T03:36:02.050Z,79.20
2018-06-13T03:38:31.767Z,79.80
2018-06-13T03:41:00.628Z,80.20
2018-06-13T03:43:29.459Z,80.20
2018-06-13T03:45:59.055Z,80.50
2018-06-13T03:48:28.647Z,81.30
2018-06-13T03:50:57.837Z,82.60
2018-06-13T03:53:26.683Z,83.00
2018-06-13T03:55:55.525Z,83.60
2018-06-13T03:58:24.376Z,83.70
2018-06-13T04:00:53.217Z,83.90
2018-06-13T04:03:22.065Z,83.40
2018-06-13T04:05:50.922Z,83.30
2018-06-13T04:08:19.795Z,83.20
2018-06-13T04:10:48.634Z,83.40
2018-06-13T04:13:17.468Z,83.20
2018-06-13T04:15:46.320Z,83.20
2018-06-13T04:18:15.173Z,83.10
2018-06-13T04:20:44.014Z,82.80
2018-06-13T04:23:12.865Z,82.70
2018-06-13T04:25:41.707Z,82.50
2018-06-13T04:28:10.562Z,82.70
2018-06-13T04:30:39.405Z,82.40
2018-06-13T04:33:08.249Z,81.90
2018-06-13T04:35:37.098Z,82.20
2018-06-13T04:38:05.938Z,82.10
2018-06-13T04:40:34.800Z,82.30
2018-06-13T04:43:03.638Z,83.20
2018-06-13T04:45:33.228Z,83.40
2018-06-13T04:48:02.077Z,83.90
2018-06-13T04:50:30.913Z,84.00
2018-06-13T04:53:00.500Z,84.10
2018-06-13T04:57:58.783Z,84.20
2018-06-13T05:00:27.629Z,84.90
2018-06-13T05:02:56.485Z,85.40
2018-06-13T05:05:25.330Z,86.00
2018-06-13T05:07:54.217Z,86.20
2018-06-13T05:10:23.107Z,86.10
2018-06-13T05:12:51.922Z,86.20
2018-06-13T05:15:20.767Z,86.30
2018-06-13T05:17:49.733Z,86.30
2018-06-13T05:20:19.355Z,86.00
2018-06-13T05:22:48.197Z,85.70
2018-06-13T05:25:17.041Z,85.30
2018-06-13T05:27:45.885Z,85.30
2018-06-13T05:32:44.178Z,84.70
2018-06-13T05:35:13.055Z,84.50
2018-06-13T05:37:41.905Z,84.20
2018-06-13T05:40:10.753Z,83.70
2018-06-13T05:42:39.606Z,83.70
2018-06-13T05:45:08.462Z,83.60
2018-06-13T05:47:37.302Z,83.20
2018-06-13T05:50:06.150Z,83.00
2018-06-13T05:52:34.989Z,83.10
2018-06-13T05:55:03.839Z,81.80
2018-06-13T05:57:32.682Z,82.30
2018-06-13T06:00:01.548Z,82.40
2018-06-13T06:02:30.389Z,80.60
2018-06-13T06:04:59.224Z,80.60
2018-06-13T06:07:28.069Z,81.10
2018-06-13T06:09:56.910Z,79.60
2018-06-13T06:12:25.751Z,79.30
2018-06-13T06:14:54.589Z,79.10
2018-06-13T06:17:23.448Z,79.90
2018-06-13T06:19:52.288Z,79.30
2018-06-13T06:22:21.875Z,79.40
2018-06-13T06:24:51.464Z,78.60
2018-06-13T06:27:20.295Z,78.90
2018-06-13T06:29:49.884Z,78.20
2018-06-13T06:32:18.744Z,78.30
2018-06-13T06:34:47.584Z,77.90
2018-06-13T06:37:17.163Z,77.20
2018-06-13T06:39:46.047Z,76.70
2018-06-13T06:42:14.906Z,77.30
2018-06-13T06:44:44.440Z,77.30
2018-06-13T06:47:13.274Z,76.10
2018-06-13T06:49:42.177Z,76.70
2018-06-13T06:52:10.956Z,77.10
2018-06-13T06:54:39.867Z,75.30
2018-06-13T06:57:08.643Z,75.30
2018-06-13T06:59:37.495Z,75.20
2018-06-13T07:02:06.341Z,74.50
2018-06-13T07:04:35.208Z,73.70
2018-06-13T07:07:04.055Z,72.70
2018-06-13T07:09:32.890Z,73.60
2018-06-13T07:12:01.726Z,72.90
2018-06-13T07:14:30.565Z,72.90
2018-06-13T07:16:59.409Z,72.10
2018-06-13T07:19:28.521Z,71.80
2018-06-13T07:21:57.087Z,70.00
2018-06-13T07:24:26.671Z,72.00
2018-06-13T07:26:55.504Z,72.00
2018-06-13T07:29:25.091Z,70.40
2018-06-13T07:31:53.930Z,69.00
2018-06-13T07:34:22.768Z,66.40
2018-06-13T07:36:51.602Z,64.00
2018-06-13T07:39:20.437Z,65.40
2018-06-13T07:41:49.603Z,65.80
2018-06-13T07:44:19.455Z,63.70
2018-06-13T07:46:48.295Z,64.40
2018-06-13T07:49:17.135Z,65.10
2018-06-13T07:51:45.987Z,64.20
2018-06-13T07:54:14.823Z,62.20
2018-06-13T07:56:43.707Z,62.20
2018-06-13T07:59:13.301Z,60.80
2018-06-13T08:01:42.127Z,60.30
2018-06-13T08:04:10.971Z,62.20
2018-06-13T08:06:39.807Z,62.60
2018-06-13T08:09:08.652Z,62.70
2018-06-13T08:11:37.485Z,63.80
2018-06-13T08:14:06.365Z,64.30
2018-06-13T08:16:35.168Z,62.90
2018-06-13T08:19:04.007Z,60.00
2018-06-13T08:21:32.854Z,60.10
2018-06-13T08:24:01.699Z,58.60
2018-06-13T08:26:30.552Z,55.80
2018-06-13T08:28:59.383Z,57.70
2018-06-13T08:31:28.977Z,57.70
2018-06-13T08:33:57.834Z,57.00
2018-06-13T08:36:26.692Z,55.90
2018-06-13T08:38:55.535Z,56.40
2018-06-13T08:41:26.544Z,56.70
2018-06-13T08:43:54.094Z,58.50
2018-06-13T08:46:22.943Z,57.40
2018-06-13T08:48:51.766Z,58.00
2018-06-13T08:51:20.629Z,56.10
2018-06-13T08:53:49.490Z,57.70
2018-06-13T08:56:18.334Z,57.80
2018-06-13T08:58:47.166Z,57.80
2018-06-13T09:01:16.051Z,58.80
2018-06-13T09:03:44.887Z,58.60
2018-06-13T09:06:13.735Z,59.70
2018-06-13T09:08:42.576Z,60.80
2018-06-13T09:11:11.412Z,62.50
2018-06-13T09:13:40.251Z,63.20
2018-06-13T09:16:09.839Z,63.00
2018-06-13T09:18:39.436Z,62.50
2018-06-13T09:21:08.284Z,63.20
2018-06-13T09:23:37.120Z,63.60
2018-06-13T09:26:05.962Z,64.80
2018-06-13T09:28:34.802Z,64.80
2018-06-13T09:31:04.397Z,65.20
2018-06-13T09:33:33.241Z,64.10
2018-06-13T09:36:02.108Z,63.20
2018-06-13T09:38:31.681Z,62.90
2018-06-13T09:41:00.522Z,62.80
2018-06-13T09:43:29.414Z,63.00
2018-06-13T09:46:03.400Z,62.40
2018-06-13T09:48:27.803Z,62.00
2018-06-13T09:50:56.647Z,61.90
2018-06-13T09:55:54.930Z,61.90
2018-06-13T09:58:23.779Z,61.60
2018-06-13T10:00:58.279Z,61.80
2018-06-13T10:03:27.119Z,61.50
2018-06-13T10:05:55.962Z,61.70
2018-06-13T10:08:24.806Z,62.00
2018-06-13T10:10:53.648Z,60.80
2018-06-13T10:13:22.496Z,61.40
2018-06-13T10:15:51.328Z,59.80
2018-06-13T10:18:20.169Z,59.00
2018-06-13T10:20:49.035Z,58.40
2018-06-13T10:23:17.878Z,58.50
2018-06-13T10:25:46.704Z,58.20
2018-06-13T10:28:15.547Z,58.30
2018-06-13T10:30:45.206Z,57.60
2018-06-13T10:33:14.035Z,58.10
2018-06-13T10:35:43.611Z,58.00
2018-06-13T10:38:12.500Z,58.70
2018-06-13T10:40:41.416Z,59.00
2018-06-13T10:43:10.227Z,60.20
2018-06-13T10:45:39.090Z,60.00
2018-06-13T10:48:07.935Z,60.90
2018-06-13T10:50:38.268Z,61.80
2018-06-13T10:53:06.304Z,61.30
2018-06-13T10:55:35.176Z,60.30
2018-06-13T10:58:03.967Z,60.10
2018-06-13T11:00:32.810Z,59.40
2018-06-13T11:03:01.641Z,59.60
2018-06-13T11:05:31.226Z,60.60
2018-06-13T11:08:00.804Z,60.70
2018-06-13T11:10:29.637Z,60.80
2018-06-13T11:12:58.492Z,60.80
2018-06-13T11:15:27.326Z,60.30
2018-06-13T11:17:56.174Z,59.70
2018-06-13T11:20:25.080Z,59.80
2018-06-13T11:22:54.523Z,61.10
2018-06-13T11:25:23.377Z,61.20
2018-06-13T11:27:52.230Z,59.60
2018-06-13T11:30:21.075Z,59.60
2018-06-13T11:32:49.938Z,59.40
2018-06-13T11:35:18.786Z,58.50
2018-06-13T11:37:47.626Z,59.00
2018-06-13T11:40:16.476Z,58.90
2018-06-13T11:42:45.302Z,58.10
2018-06-13T11:45:14.189Z,56.20
2018-06-13T11:47:43.764Z,57.60
2018-06-13T11:50:12.601Z,58.10
2018-06-13T11:52:42.184Z,59.10
2018-06-13T11:55:11.044Z,58.80
2018-06-13T11:57:40.172Z,57.70
2018-06-13T12:00:09.021Z,57.90
2018-06-13T12:02:37.863Z,57.40
2018-06-13T12:05:06.709Z,57.80
2018-06-13T12:07:35.545Z,57.50
2018-06-13T12:10:04.400Z,57.60
2018-06-13T12:12:33.235Z,57.30
2018-06-13T12:15:02.820Z,58.00
2018-06-13T12:17:31.683Z,57.30
2018-06-13T12:20:00.526Z,58.10
2018-06-13T12:22:29.407Z,57.70
2018-06-13T12:24:58.203Z,57.20
2018-06-13T12:27:27.041Z,57.30
2018-06-13T12:29:55.877Z,55.90
2018-06-13T12:32:25.464Z,54.80
2018-06-13T12:34:55.044Z,54.00
2018-06-13T12:37:23.889Z,53.80
2018-06-13T12:39:52.736Z,53.30
2018-06-13T12:42:21.579Z,53.60
2018-06-13T12:44:50.425Z,53.00
2018-06-13T12:47:19.271Z,53.90
2018-06-13T12:49:48.103Z,53.90
2018-06-13T12:52:16.964Z,54.00
2018-06-13T12:54:45.811Z,53.60
2018-06-13T12:57:14.662Z,54.80
2018-06-13T12:59:43.523Z,57.10
2018-06-13T13:02:12.371Z,58.30
2018-06-13T13:04:42.972Z,58.60
2018-06-13T13:07:11.773Z,58.60
2018-06-13T13:09:40.627Z,57.90
2018-06-13T13:12:09.498Z,58.30
2018-06-13T13:14:39.047Z,58.40
2018-06-13T13:17:07.891Z,58.50
2018-06-13T13:19:36.733Z,57.90
2018-06-13T13:22:06.315Z,59.50
2018-06-13T13:24:35.149Z,58.40
2018-06-13T13:27:04.724Z,59.10
2018-06-13T13:29:33.569Z,59.00
2018-06-13T13:32:02.413Z,58.50
2018-06-13T13:34:31.255Z,58.40
2018-06-13T13:37:00.117Z,58.00
2018-06-13T13:39:28.960Z,58.80
2018-06-13T13:41:57.787Z,58.40
2018-06-13T13:44:27.369Z,58.70
2018-06-13T13:46:56.212Z,56.60
2018-06-13T13:49:25.053Z,56.50
2018-06-13T13:51:53.903Z,56.70
2018-06-13T13:54:22.757Z,56.50
2018-06-13T13:56:51.594Z,57.10
2018-06-13T13:59:20.432Z,58.40
2018-06-13T14:01:49.269Z,59.60
2018-06-13T14:04:18.111Z,57.70
2018-06-13T14:06:47.700Z,58.10
2018-06-13T14:09:16.571Z,58.40
2018-06-13T14:11:45.434Z,57.70
2018-06-13T14:14:14.267Z,58.60
2018-06-13T14:16:43.853Z,56.40
2018-06-13T14:19:12.693Z,57.20
2018-06-13T14:21:41.549Z,57.60
2018-06-13T14:24:10.373Z,58.20
2018-06-13T14:26:39.210Z,58.70
2018-06-13T14:29:08.052Z,59.30
2018-06-13T14:31:36.904Z,60.40
2018-06-13T14:34:05.747Z,60.00
2018-06-13T14:36:34.674Z,59.40
2018-06-13T14:41:32.965Z,59.50
2018-06-13T14:46:31.318Z,58.50
2018-06-13T14:49:00.874Z,57.90
2018-06-13T14:51:29.724Z,57.90
2018-06-13T14:53:58.579Z,57.80
2018-06-13T14:56:27.458Z,57.30
2018-06-13T14:58:56.274Z,57.50
2018-06-13T15:01:25.120Z,57.20
2018-06-13T15:03:53.963Z,56.60
2018-06-13T15:06:22.807Z,56.60
2018-06-13T15:08:51.659Z,56.80
2018-06-13T15:11:21.435Z,56.90
2018-06-13T15:13:50.287Z,57.60
2018-06-13T15:16:19.120Z,57.30
2018-06-13T15:18:47.968Z,57.50
2018-06-13T15:21:16.824Z,57.20
2018-06-13T15:23:45.671Z,57.50
2018-06-13T15:26:14.878Z,57.60
2018-06-13T15:28:44.315Z,58.20
2018-06-13T15:31:13.166Z,57.80
2018-06-13T15:33:42.009Z,58.00
2018-06-13T15:36:10.852Z,57.50
2018-06-13T15:38:39.704Z,58.00
2018-06-13T15:41:08.547Z,58.50
2018-06-13T15:43:37.392Z,58.20
2018-06-13T15:46:06.984Z,58.50
2018-06-13T15:48:35.828Z,58.60
2018-06-13T15:51:04.672Z,59.10
2018-06-13T15:53:34.260Z,58.90
2018-06-13T15:56:03.086Z,58.70
2018-06-13T15:58:31.930Z,59.40
2018-06-13T16:01:00.760Z,60.00
2018-06-13T16:03:29.611Z,59.70
2018-06-13T16:05:58.598Z,59.70
2018-06-13T16:08:27.321Z,60.00
2018-06-13T16:10:56.194Z,59.50
2018-06-13T16:13:25.021Z,60.00
2018-06-13T16:15:54.134Z,59.80
2018-06-13T16:18:22.979Z,60.50
2018-06-13T16:20:52.556Z,60.90
2018-06-13T16:23:22.210Z,61.70
2018-06-13T16:25:51.055Z,62.60
2018-06-13T16:28:20.481Z,63.30
2018-06-13T16:30:50.106Z,63.00
2018-06-13T16:33:18.968Z,62.70
2018-06-13T16:35:47.868Z,63.50
2018-06-13T16:38:17.591Z,62.90
2018-06-13T16:40:47.168Z,63.80
2018-06-13T16:43:16.011Z,64.00
2018-06-13T16:45:44.848Z,64.10
2018-06-13T16:48:13.713Z,64.70
2018-06-13T16:50:44.375Z,64.10
2018-06-13T16:53:13.223Z,63.60
2018-06-13T16:55:42.060Z,63.20
2018-06-13T16:58:10.904Z,64.10
2018-06-13T17:00:39.746Z,63.60
2018-06-13T17:03:09.337Z,63.00
2018-06-13T17:05:38.178Z,63.20
2018-06-13T17:08:07.648Z,63.50
2018-06-13T17:10:36.529Z,63.00
2018-06-13T17:13:05.370Z,63.10
2018-06-13T17:15:35.045Z,63.40
2018-06-13T17:18:03.884Z,63.00
2018-06-13T17:20:32.717Z,62.70
2018-06-13T17:23:02.310Z,63.20
2018-06-13T17:25:31.136Z,62.70
2018-06-13T17:27:59.967Z,62.30
2018-06-13T17:30:28.793Z,62.30
2018-06-13T17:32:57.632Z,62.80
2018-06-13T17:35:26.468Z,62.80
2018-06-13T17:37:55.328Z,62.80
2018-06-13T17:40:24.162Z,63.20
2018-06-13T17:42:52.991Z,63.40
2018-06-13T17:45:21.829Z,63.90
2018-06-13T17:47:50.665Z,64.40
2018-06-13T17:50:19.510Z,64.90
2018-06-13T17:52:48.375Z,65.00
2018-06-13T17:55:17.211Z,64.70
2018-06-13T17:57:46.046Z,64.20
2018-06-13T18:00:14.889Z,64.30
2018-06-13T18:02:43.734Z,64.70
2018-06-13T18:05:12.580Z,65.20
2018-06-13T18:07:41.429Z,65.20
2018-06-13T18:10:10.286Z,65.00
2018-06-13T18:12:39.116Z,64.60
2018-06-13T18:15:07.950Z,64.20
2018-06-13T18:17:36.788Z,64.20
2018-06-13T18:20:06.284Z,63.90
2018-06-13T18:22:35.144Z,63.90
2018-06-13T18:25:03.994Z,63.70
2018-06-13T18:27:32.831Z,63.80
2018-06-13T18:30:01.689Z,64.00
2018-06-13T18:32:30.533Z,63.80
2018-06-13T18:34:59.899Z,64.50
2018-06-13T18:37:28.736Z,64.40
2018-06-13T18:39:57.570Z,64.70
2018-06-13T18:42:27.193Z,64.60
2018-06-13T18:44:56.045Z,65.00
2018-06-13T18:47:24.879Z,65.30
2018-06-13T18:49:53.729Z,65.90
2018-06-13T18:52:22.578Z,66.20
2018-06-13T18:54:51.430Z,66.80
2018-06-13T18:57:20.280Z,66.50
2018-06-13T18:59:49.138Z,66.80
2018-06-13T19:02:17.981Z,66.60
2018-06-13T19:04:46.821Z,66.90
2018-06-13T19:07:15.669Z,67.10
2018-06-13T19:09:44.512Z,67.10
2018-06-13T19:12:13.371Z,67.60
2018-06-13T19:14:42.228Z,67.90
2018-06-13T19:17:11.069Z,68.30
2018-06-13T19:19:39.921Z,68.30
2018-06-13T19:22:08.769Z,68.70
2018-06-13T19:24:37.608Z,68.90
2018-06-13T19:27:06.451Z,69.30
2018-06-13T19:29:35.314Z,69.30
2018-06-13T19:32:04.888Z,69.70
2018-06-13T19:34:33.726Z,69.90
2018-06-13T19:37:02.584Z,69.70
2018-06-13T19:39:31.430Z,69.50
2018-06-13T19:42:00.270Z,69.40
2018-06-13T19:44:29.114Z,68.90
2018-06-13T19:46:57.947Z,68.70
2018-06-13T19:49:26.798Z,68.60
2018-06-13T19:51:55.626Z,68.00
2018-06-13T19:54:30.706Z,68.10
2018-06-13T19:56:59.570Z,68.00
2018-06-13T19:59:28.729Z,68.90
2018-06-13T20:01:58.379Z,68.90
2018-06-13T20:04:27.793Z,69.10
2018-06-13T20:06:56.687Z,68.50
2018-06-13T20:09:25.498Z,69.00
2018-06-13T20:11:54.364Z,69.10
2018-06-13T20:14:23.955Z,69.30
2018-06-13T20:16:53.677Z,69.50
2018-06-13T20:19:27.950Z,69.50
2018-06-13T20:21:57.822Z,70.00
2018-06-13T20:24:26.393Z,70.10
2018-06-13T20:27:00.812Z,69.90
2018-06-13T20:29:30.572Z,69.80
2018-06-13T20:31:59.416Z,70.50
2018-06-13T20:34:28.265Z,70.00
2018-06-13T20:37:00.328Z,70.20
2018-06-13T20:39:29.906Z,70.20
2018-06-13T20:41:58.756Z,70.30
2018-06-13T20:44:27.594Z,70.60
2018-06-13T20:46:56.440Z,70.20
2018-06-13T20:49:25.285Z,70.40
2018-06-13T20:51:54.866Z,70.60
2018-06-13T20:54:23.700Z,70.70
2018-06-13T20:56:52.550Z,70.50
2018-06-13T20:59:21.388Z,71.10
2018-06-13T21:01:51.168Z,72.10
2018-06-13T21:04:20.758Z,72.70
2018-06-13T21:06:49.616Z,73.20
2018-06-13T21:09:18.462Z,73.40
2018-06-13T21:11:48.045Z,73.50
2018-06-13T21:14:16.877Z,73.70
2018-06-13T21:16:45.720Z,73.80
2018-06-13T21:21:44.131Z,73.80
2018-06-13T21:24:12.976Z,73.80
2018-06-13T21:26:41.829Z,73.80
2018-06-13T21:29:11.415Z,73.00
2018-06-13T21:31:40.347Z,73.30
2018-06-13T21:34:09.898Z,72.60
2018-06-13T21:36:38.733Z,72.60
2018-06-13T21:39:07.593Z,72.50
2018-06-13T21:41:37.196Z,72.80
2018-06-13T21:44:06.041Z,73.30
2018-06-13T21:46:34.883Z,72.10
2018-06-13T21:49:04.464Z,72.70
2018-06-13T21:51:33.294Z,73.00
2018-06-13T21:54:02.140Z,73.10
2018-06-13T21:56:30.985Z,73.60
2018-06-13T21:59:00.473Z,74.00
2018-06-13T22:01:29.244Z,74.20
2018-06-13T22:03:58.821Z,74.70
2018-06-13T22:06:27.656Z,74.60
2018-06-13T22:08:56.493Z,75.20
2018-06-13T22:11:25.341Z,75.50
2018-06-13T22:13:54.188Z,75.90
2018-06-13T22:16:23.022Z,76.60
2018-06-13T22:18:51.867Z,77.20
2018-06-13T22:21:21.295Z,77.30
2018-06-13T22:23:50.886Z,78.00
2018-06-13T22:26:19.749Z,77.70
2018-06-13T22:28:48.545Z,78.20
2018-06-13T22:33:47.562Z,78.40
2018-06-13T22:36:16.432Z,78.50
2018-06-13T22:38:45.287Z,78.10
2018-06-13T22:41:14.135Z,77.80
2018-06-13T22:43:43.716Z,78.20
2018-06-13T22:46:12.550Z,78.10
2018-06-13T22:48:42.149Z,77.70
2018-06-13T22:51:11.744Z,77.80
2018-06-13T22:56:10.028Z,77.40
2018-06-13T22:58:38.869Z,77.40
2018-06-13T23:01:07.712Z,77.50
2018-06-13T23:03:37.209Z,77.70
2018-06-13T23:06:06.046Z,78.00
2018-06-13T23:08:34.886Z,78.10
2018-06-13T23:11:03.727Z,78.50
2018-06-13T23:13:32.577Z,78.90
2018-06-13T23:18:30.871Z,79.10
2018-06-13T23:20:59.711Z,79.10
2018-06-13T23:23:28.548Z,78.90
2018-06-13T23:25:57.408Z,78.30
2018-06-13T23:28:26.268Z,77.60
2018-06-13T23:30:55.112Z,77.70
2018-06-13T23:33:23.958Z,78.20
2018-06-13T23:35:52.791Z,78.50
2018-06-13T23:38:21.669Z,78.40
2018-06-13T23:40:51.411Z,78.70
2018-06-13T23:43:20.818Z,78.60
2018-06-13T23:45:49.702Z,79.10
2018-06-13T23:48:18.573Z,78.60
2018-06-13T23:50:47.426Z,78.80
2018-06-13T23:53:16.257Z,78.40
2018-06-13T23:55:45.847Z,78.60
2018-06-13T23:58:14.691Z,78.50
